createdAt,value
2019-02-02T00:04:17.444Z,54.53
2019-02-02T00:09:19.906Z,51.67
2019-02-02T00:14:23.273Z,52.60
2019-02-02T00:19:26.163Z,51.10
2019-02-02T00:24:29.688Z,50.67
2019-02-02T00:29:32.885Z,51.37
2019-02-02T00:34:36.088Z,54.83
2019-02-02T00:39:39.607Z,53.60
2019-02-02T00:44:42.410Z,51.50
2019-02-02T00:49:45.976Z,51.00
2019-02-02T00:54:48.835Z,54.03
2019-02-02T00:59:51.957Z,52.30
2019-02-02T01:04:55.148Z,51.33
2019-02-02T01:09:57.810Z,51.83
2019-02-02T01:15:00.757Z,50.97
2019-02-02T01:20:04.683Z,52.70
2019-02-02T01:25:08.342Z,52.40
2019-02-02T01:30:12.994Z,54.23
2019-02-02T01:35:16.541Z,51.50
2019-02-02T01:40:20.161Z,50.87
2019-02-02T01:45:24.367Z,53.37
2019-02-02T01:50:28.021Z,55.23
2019-02-02T01:55:31.343Z,52.33
2019-02-02T02:00:34.820Z,52.77
2019-02-02T02:05:39.201Z,52.13
2019-02-02T02:10:42.679Z,50.50
2019-02-02T02:15:46.234Z,49.90
2019-02-02T02:20:49.728Z,52.57
2019-02-02T02:25:52.952Z,49.77
2019-02-02T02:30:55.936Z,51.40
2019-02-02T02:35:59.536Z,52.07
2019-02-02T02:41:02.387Z,53.43
2019-02-02T02:46:05.455Z,53.03
2019-02-02T02:51:08.396Z,51.70
2019-02-02T02:56:11.509Z,51.87
2019-02-02T03:01:15.049Z,56.07
2019-02-02T03:06:18.539Z,49.67
2019-02-02T03:11:21.437Z,51.43
2019-02-02T03:16:24.662Z,55.60
2019-02-02T03:21:27.967Z,51.23
2019-02-02T03:26:31.153Z,51.07
2019-02-02T03:31:34.328Z,54.80
2019-02-02T03:36:37.182Z,55.33
2019-02-02T03:41:40.441Z,57.30
2019-02-02T03:46:43.647Z,51.40
2019-02-02T03:51:46.819Z,53.90
2019-02-02T03:56:49.708Z,55.40
2019-02-02T04:01:52.987Z,51.87
2019-02-02T04:06:56.229Z,54.53
2019-02-02T04:11:59.033Z,54.90
2019-02-02T04:17:13.717Z,58.53
2019-02-02T04:22:18.254Z,57.90
2019-02-02T04:27:21.671Z,57.70
2019-02-02T04:32:24.879Z,60.07
2019-02-02T04:37:28.113Z,55.77
2019-02-02T04:42:31.303Z,58.23
2019-02-02T04:47:34.209Z,57.40
2019-02-02T04:52:37.512Z,58.13
2019-02-02T04:57:40.732Z,56.03
2019-02-02T05:02:44.312Z,59.93
2019-02-02T05:07:47.460Z,58.60
2019-02-02T05:12:50.323Z,59.83
2019-02-02T05:17:53.461Z,59.60
2019-02-02T05:22:55.963Z,56.03
2019-02-02T05:27:59.172Z,56.47
2019-02-02T05:33:02.382Z,59.13
2019-02-02T05:38:05.893Z,60.63
2019-02-02T05:43:08.799Z,59.23
2019-02-02T05:48:12.417Z,58.00
2019-02-02T05:53:15.625Z,58.33
2019-02-02T05:58:18.525Z,57.70
2019-02-02T06:03:21.771Z,62.37
2019-02-02T06:08:24.919Z,60.30
2019-02-02T06:13:27.434Z,59.73
2019-02-02T06:18:30.952Z,64.30
2019-02-02T06:23:34.161Z,57.63
2019-02-02T06:28:38.856Z,61.90
2019-02-02T06:33:42.093Z,65.00
2019-02-02T06:38:45.325Z,59.87
2019-02-02T06:43:47.882Z,57.13
2019-02-02T06:48:51.393Z,62.57
2019-02-02T06:53:54.964Z,63.00
2019-02-02T06:58:57.859Z,62.07
2019-02-02T07:04:01.086Z,59.00
2019-02-02T07:09:07.238Z,63.53
2019-02-02T07:14:10.784Z,64.53
2019-02-02T07:19:16.660Z,65.07
2019-02-02T07:24:19.992Z,62.63
2019-02-02T07:29:24.292Z,65.53
2019-02-02T07:34:27.779Z,67.33
2019-02-02T07:39:31.099Z,67.13
2019-02-02T07:44:34.036Z,72.10
2019-02-02T07:49:37.219Z,68.67
2019-02-02T07:54:40.240Z,72.50
2019-02-02T07:59:43.435Z,70.13
2019-02-02T08:04:45.964Z,69.33
2019-02-02T08:09:48.850Z,69.23
2019-02-02T08:14:54.033Z,73.17
2019-02-02T08:19:57.398Z,73.20
2019-02-02T08:25:01.044Z,88.45
2019-02-02T08:30:05.214Z,73.33
2019-02-02T08:35:08.194Z,72.13
2019-02-02T08:40:13.776Z,71.83
2019-02-02T08:45:17.345Z,72.80
2019-02-02T08:50:28.446Z,73.27
2019-02-02T08:55:31.673Z,71.70
2019-02-02T09:00:35.423Z,74.20
2019-02-02T09:05:38.571Z,72.47
2019-02-02T09:10:41.799Z,70.80
2019-02-02T09:15:44.702Z,71.03
2019-02-02T09:20:48.340Z,73.30
2019-02-02T09:25:51.555Z,67.30
2019-02-02T09:30:54.781Z,68.67
2019-02-02T09:35:57.994Z,69.70
2019-02-02T09:41:00.872Z,67.70
2019-02-02T09:46:04.759Z,71.80
2019-02-02T09:51:07.600Z,69.27
2019-02-02T09:56:11.477Z,67.70
2019-02-02T10:01:14.006Z,63.50
2019-02-02T10:06:17.225Z,61.77
2019-02-02T10:11:20.802Z,69.67
2019-02-02T10:16:24.346Z,67.97
2019-02-02T10:21:26.908Z,62.77
2019-02-02T10:26:30.105Z,61.30
2019-02-02T10:31:39.763Z,60.30
2019-02-02T10:36:38.372Z,57.37
2019-02-02T10:41:43.335Z,58.03
2019-02-02T10:46:46.593Z,54.77
2019-02-02T10:51:49.890Z,53.67
2019-02-02T10:56:53.212Z,59.93
2019-02-02T11:01:56.258Z,57.97
2019-02-02T11:06:59.629Z,56.23
2019-02-02T11:12:02.807Z,60.93
2019-02-02T11:17:06.079Z,56.37
2019-02-02T11:22:10.707Z,60.00
2019-02-02T11:27:14.284Z,63.67
2019-02-02T11:32:17.726Z,61.37
2019-02-02T11:37:20.701Z,57.37
2019-02-02T11:42:23.653Z,60.07
2019-02-02T11:47:26.944Z,60.77
2019-02-02T11:52:30.525Z,56.83
2019-02-02T11:57:33.779Z,58.53
2019-02-02T12:02:48.846Z,61.60
2019-02-02T12:07:42.611Z,55.87
2019-02-02T12:12:45.837Z,58.10
2019-02-02T12:17:49.382Z,59.30
2019-02-02T12:22:52.743Z,61.70
2019-02-02T12:27:56.414Z,57.60
2019-02-02T12:33:03.160Z,51.77
2019-02-02T12:38:06.317Z,54.43
2019-02-02T12:43:11.615Z,55.80
2019-02-02T12:48:14.881Z,54.67
2019-02-02T12:53:18.369Z,51.90
2019-02-02T12:58:21.696Z,52.73
2019-02-02T13:03:25.012Z,54.23
2019-02-02T13:08:27.928Z,48.57
2019-02-02T13:13:31.107Z,55.30
2019-02-02T13:18:34.049Z,51.50
2019-02-02T13:23:37.715Z,49.43
2019-02-02T13:28:40.979Z,52.23
2019-02-02T13:33:44.281Z,54.63
2019-02-02T13:38:47.603Z,55.33
2019-02-02T13:43:50.162Z,55.97
2019-02-02T13:48:53.785Z,54.07
2019-02-02T13:53:57.435Z,56.00
2019-02-02T13:59:00.173Z,60.80
2019-02-02T14:04:02.384Z,57.43
2019-02-02T14:09:08.091Z,56.27
2019-02-02T14:14:11.101Z,58.20
2019-02-02T14:19:14.416Z,55.60
2019-02-02T14:24:17.750Z,54.10
2019-02-02T14:29:21.026Z,50.80
2019-02-02T14:34:23.950Z,51.80
2019-02-02T14:39:28.798Z,50.13
2019-02-02T14:44:32.094Z,51.13
2019-02-02T14:49:35.361Z,52.40
2019-02-02T14:54:38.964Z,52.50
2019-02-02T14:59:42.036Z,47.80
2019-02-02T15:04:45.797Z,54.37
2019-02-02T15:09:49.220Z,56.57
2019-02-02T15:14:52.476Z,66.28
2019-02-02T15:19:56.695Z,53.70
2019-02-02T15:24:59.720Z,49.30
2019-02-02T15:30:03.996Z,46.93
2019-02-02T15:35:07.078Z,49.30
2019-02-02T15:40:12.331Z,49.90
2019-02-02T15:45:17.162Z,49.80
2019-02-02T15:50:21.771Z,51.17
2019-02-02T15:55:25.399Z,54.70
2019-02-02T16:00:30.523Z,52.43
2019-02-02T16:05:34.988Z,53.60
2019-02-02T16:10:38.314Z,52.87
2019-02-02T16:15:41.540Z,50.00
2019-02-02T16:20:44.604Z,55.83
2019-02-02T16:25:50.140Z,52.63
2019-02-02T16:30:52.973Z,52.67
2019-02-02T16:35:56.343Z,52.80
2019-02-02T16:40:59.548Z,51.73
2019-02-02T16:46:03.754Z,51.23
2019-02-02T16:51:11.020Z,54.43
2019-02-02T16:56:17.126Z,51.63
2019-02-02T17:01:20.366Z,49.97
2019-02-02T17:06:23.721Z,50.67
2019-02-02T17:11:27.070Z,50.13
2019-02-02T17:16:29.674Z,51.17
2019-02-02T17:21:32.594Z,52.17
2019-02-02T17:26:35.526Z,49.97
2019-02-02T17:31:38.398Z,48.10
2019-02-02T17:36:42.677Z,47.10
2019-02-02T17:41:46.365Z,45.80
2019-02-02T17:46:49.937Z,45.03
2019-02-02T17:51:53.506Z,45.50
2019-02-02T17:56:57.854Z,42.90
2019-02-02T18:02:01.454Z,41.50
2019-02-02T18:07:04.930Z,40.50
2019-02-02T18:12:07.779Z,39.80
2019-02-02T18:17:11.227Z,39.30
2019-02-02T18:22:14.600Z,40.77
2019-02-02T18:27:17.903Z,39.80
2019-02-02T18:32:21.547Z,38.67
2019-02-02T18:37:24.887Z,37.33
2019-02-02T18:42:28.080Z,39.10
2019-02-02T18:47:31.720Z,36.07
2019-02-02T18:52:35.352Z,38.80
2019-02-02T18:57:38.924Z,34.87
2019-02-02T19:02:42.547Z,35.60
2019-02-02T19:07:46.056Z,34.90
2019-02-02T19:12:49.395Z,37.30
2019-02-02T19:17:53.135Z,36.40
2019-02-02T19:22:57.348Z,39.07
2019-02-02T19:28:00.581Z,39.30
2019-02-02T19:33:06.339Z,42.83
2019-02-02T19:38:10.130Z,44.40
2019-02-02T19:43:14.199Z,45.30
2019-02-02T19:48:18.601Z,41.43
2019-02-02T19:53:23.440Z,40.30
2019-02-02T19:58:28.117Z,40.93
2019-02-02T20:03:31.788Z,40.40
2019-02-02T20:08:36.075Z,38.10
2019-02-02T20:13:42.658Z,39.70
2019-02-02T20:18:47.105Z,39.30
2019-02-02T20:23:52.643Z,38.37
2019-02-02T20:28:57.640Z,42.30
2019-02-02T20:34:02.578Z,39.40
2019-02-02T20:39:08.023Z,38.90
2019-02-02T20:44:12.882Z,36.70
2019-02-02T20:49:16.256Z,38.90
2019-02-02T20:54:20.573Z,43.27
2019-02-02T20:59:25.231Z,41.50
2019-02-02T21:04:29.329Z,39.43
2019-02-02T21:09:34.441Z,41.17
2019-02-02T21:14:38.677Z,40.70
2019-02-02T21:19:42.340Z,44.20
2019-02-02T21:24:45.868Z,41.40
2019-02-02T21:29:49.971Z,42.63
2019-02-02T21:34:53.316Z,37.63
2019-02-02T21:39:56.570Z,37.50
2019-02-02T21:45:00.460Z,36.73
2019-02-02T21:50:05.107Z,37.97
2019-02-02T21:55:10.353Z,37.70
2019-02-02T22:00:16.802Z,36.67
2019-02-02T22:05:19.923Z,37.80
2019-02-02T22:10:23.402Z,37.10
2019-02-02T22:15:26.874Z,36.77
2019-02-02T22:20:30.121Z,37.57
2019-02-02T22:25:33.540Z,35.30
2019-02-02T22:30:37.626Z,38.50
2019-02-02T22:35:40.944Z,38.60
2019-02-02T22:40:44.517Z,35.57
2019-02-02T22:45:47.748Z,34.87
2019-02-02T22:50:50.970Z,34.57
2019-02-02T22:55:53.935Z,36.57
2019-02-02T23:01:10.569Z,37.03
2019-02-02T23:06:50.259Z,37.40
2019-02-02T23:12:36.856Z,38.40
2019-02-02T23:17:40.375Z,39.80
2019-02-02T23:22:44.589Z,36.60
2019-02-02T23:27:47.820Z,40.80
2019-02-02T23:32:51.794Z,37.37
2019-02-02T23:37:55.597Z,39.30
2019-02-02T23:42:58.851Z,39.50
2019-02-02T23:48:02.160Z,40.30
2019-02-02T23:53:05.478Z,43.00
2019-02-02T23:58:09.078Z,42.90
